createdAt,value
2022-11-04T00:01:50.524Z,57.93
2022-11-04T00:04:19.458Z,58.29
2022-11-04T00:06:48.054Z,58.29
2022-11-04T00:09:17.920Z,58.10
2022-11-04T00:12:03.489Z,58.67
2022-11-04T00:14:31.110Z,58.74
2022-11-04T00:17:16.780Z,59.01
2022-11-04T00:20:02.185Z,58.91
2022-11-04T00:22:50.511Z,59.10
2022-11-04T00:25:35.999Z,59.48
2022-11-04T00:28:27.493Z,59.63
2022-11-04T00:30:55.375Z,59.31
2022-11-04T00:33:27.978Z,59.63
2022-11-04T00:35:56.552Z,59.69
2022-11-04T00:38:26.014Z,59.89
2022-11-04T00:40:53.333Z,59.73
2022-11-04T00:43:20.107Z,60.47
2022-11-04T00:45:47.224Z,60.04
2022-11-04T00:48:14.131Z,60.38
2022-11-04T00:50:42.093Z,60.33
2022-11-04T00:53:09.128Z,60.56
2022-11-04T00:55:37.393Z,60.40
2022-11-04T00:58:04.064Z,60.29
2022-11-04T01:00:30.788Z,60.61
2022-11-04T01:02:57.811Z,60.46
2022-11-04T01:05:24.472Z,60.54
2022-11-04T01:07:51.137Z,60.47
2022-11-04T01:10:18.251Z,60.14
2022-11-04T01:12:46.319Z,60.64
2022-11-04T01:15:12.952Z,60.46
2022-11-04T01:17:39.640Z,60.14
2022-11-04T01:20:07.552Z,59.96
2022-11-04T01:22:34.247Z,59.88
2022-11-04T01:25:01.005Z,60.06
2022-11-04T01:27:27.907Z,59.81
2022-11-04T01:29:56.068Z,59.72
2022-11-04T01:32:22.832Z,59.59
2022-11-04T01:34:49.530Z,60.12
2022-11-04T01:37:16.386Z,60.25
2022-11-04T01:39:43.713Z,60.01
2022-11-04T01:42:13.930Z,59.93
2022-11-04T01:44:50.328Z,59.37
2022-11-04T01:47:20.347Z,59.68
2022-11-04T01:49:50.736Z,59.12
2022-11-04T01:52:21.183Z,59.60
2022-11-04T01:54:50.704Z,59.76
2022-11-04T01:57:21.291Z,59.39
2022-11-04T01:59:49.821Z,59.64
2022-11-04T02:02:17.982Z,59.38
2022-11-04T02:04:45.764Z,59.01
2022-11-04T02:07:12.630Z,58.49
2022-11-04T02:09:41.308Z,58.71
2022-11-04T02:12:26.986Z,58.40
2022-11-04T02:14:55.132Z,58.45
2022-11-04T02:17:44.455Z,58.08
2022-11-04T02:20:27.799Z,58.46
2022-11-04T02:23:26.461Z,57.92
2022-11-04T02:26:31.573Z,57.35
2022-11-04T02:29:31.466Z,57.76
2022-11-04T02:32:06.535Z,58.07
2022-11-04T02:34:42.981Z,58.36
2022-11-04T02:37:16.283Z,57.97
2022-11-04T02:39:51.881Z,58.15
2022-11-04T02:42:27.444Z,57.87
2022-11-04T02:45:05.510Z,58.20
2022-11-04T02:47:36.427Z,58.24
2022-11-04T02:50:08.777Z,58.72
2022-11-04T02:52:47.236Z,58.77
2022-11-04T02:55:22.795Z,58.50
2022-11-04T02:57:54.576Z,58.54
2022-11-04T03:00:22.776Z,58.42
2022-11-04T03:02:55.493Z,57.97
2022-11-04T03:05:27.533Z,57.86
2022-11-04T03:07:58.617Z,58.10
2022-11-04T03:10:31.980Z,58.47
2022-11-04T03:13:02.767Z,57.95
2022-11-04T03:15:34.676Z,58.46
2022-11-04T03:18:08.704Z,58.48
2022-11-04T03:20:38.553Z,58.25
2022-11-04T03:23:05.539Z,58.67
2022-11-04T03:25:36.364Z,58.61
2022-11-04T03:28:14.963Z,58.70
2022-11-04T03:30:46.422Z,58.91
2022-11-04T03:33:22.119Z,58.79
2022-11-04T03:35:48.920Z,58.93
2022-11-04T03:38:15.723Z,58.56
2022-11-04T03:40:42.651Z,58.33
2022-11-04T03:43:14.206Z,58.71
2022-11-04T03:45:41.990Z,58.89
2022-11-04T03:48:10.289Z,58.81
2022-11-04T03:50:42.027Z,58.78
2022-11-04T03:53:10.862Z,58.67
2022-11-04T03:55:45.949Z,58.68
2022-11-04T03:58:27.313Z,58.84
2022-11-04T04:01:04.601Z,58.71
2022-11-04T04:03:38.272Z,58.47
2022-11-04T04:06:10.978Z,59.18
2022-11-04T04:08:42.963Z,58.76
2022-11-04T04:11:18.970Z,58.87
2022-11-04T04:13:53.573Z,59.28
2022-11-04T04:16:27.216Z,59.53
2022-11-04T04:18:59.353Z,59.26
2022-11-04T04:21:30.023Z,59.35
2022-11-04T04:24:17.606Z,59.40
2022-11-04T04:27:05.694Z,59.50
2022-11-04T04:29:32.785Z,59.86
2022-11-04T04:32:00.743Z,59.92
2022-11-04T04:34:30.803Z,60.01
2022-11-04T04:37:02.082Z,59.62
2022-11-04T04:39:54.011Z,59.55
2022-11-04T04:42:59.541Z,59.94
2022-11-04T04:45:32.915Z,59.31
2022-11-04T04:47:59.673Z,59.84
2022-11-04T04:50:31.594Z,59.61
2022-11-04T04:53:00.586Z,59.87
2022-11-04T04:55:27.273Z,59.56
2022-11-04T04:57:53.948Z,59.49
2022-11-04T05:00:21.250Z,59.36
2022-11-04T05:02:48.971Z,59.38
2022-11-04T05:07:49.568Z,58.23
2022-11-04T05:10:17.417Z,56.80
2022-11-04T05:13:03.237Z,57.30
2022-11-04T05:15:31.112Z,57.80
2022-11-04T05:17:59.403Z,57.27
2022-11-04T05:20:26.680Z,57.63
2022-11-04T05:22:55.535Z,57.54
2022-11-04T05:25:22.166Z,57.83
2022-11-04T05:27:48.822Z,58.13
2022-11-04T05:30:15.775Z,58.20
2022-11-04T05:32:42.434Z,57.93
2022-11-04T05:35:09.412Z,57.98
2022-11-04T05:37:36.101Z,57.76
2022-11-04T05:40:07.492Z,57.53
2022-11-04T05:42:34.238Z,57.22
2022-11-04T05:45:00.951Z,56.99
2022-11-04T05:47:28.525Z,57.37
2022-11-04T05:49:55.258Z,57.06
2022-11-04T05:52:22.633Z,57.40
2022-11-04T05:54:49.520Z,57.49
2022-11-04T05:57:17.759Z,57.70
2022-11-04T05:59:44.474Z,58.29
2022-11-04T06:02:11.405Z,58.17
2022-11-04T06:04:38.259Z,58.45
2022-11-04T06:07:05.038Z,58.54
2022-11-04T06:09:41.328Z,58.59
2022-11-04T06:12:09.954Z,58.31
2022-11-04T06:14:38.239Z,58.63
2022-11-04T06:17:05.027Z,58.91
2022-11-04T06:19:31.904Z,59.09
2022-11-04T06:21:58.726Z,59.30
2022-11-04T06:24:25.560Z,58.95
2022-11-04T06:26:52.420Z,58.94
2022-11-04T06:29:19.118Z,59.42
2022-11-04T06:31:47.288Z,59.51
2022-11-04T06:34:13.948Z,59.06
2022-11-04T06:36:40.671Z,59.11
2022-11-04T06:39:07.709Z,59.13
2022-11-04T06:41:34.603Z,59.08
2022-11-04T06:44:01.406Z,58.87
2022-11-04T06:46:34.566Z,59.01
2022-11-04T06:49:03.271Z,59.48
2022-11-04T06:51:30.008Z,59.38
2022-11-04T06:53:56.638Z,59.58
2022-11-04T06:56:23.739Z,59.70
2022-11-04T06:58:51.339Z,59.46
2022-11-04T07:01:22.190Z,59.94
2022-11-04T07:03:50.812Z,59.93
2022-11-04T07:06:19.809Z,59.68
2022-11-04T07:08:46.914Z,60.40
2022-11-04T07:11:14.173Z,60.04
2022-11-04T07:13:41.070Z,59.81
2022-11-04T07:16:09.026Z,59.75
2022-11-04T07:18:36.460Z,59.90
2022-11-04T07:21:08.763Z,60.31
2022-11-04T07:23:38.510Z,60.46
2022-11-04T07:26:07.587Z,61.06
2022-11-04T07:28:34.452Z,60.78
2022-11-04T07:31:03.475Z,60.58
2022-11-04T07:33:30.168Z,60.92
2022-11-04T07:35:58.151Z,60.18
2022-11-04T07:38:25.493Z,59.99
2022-11-04T07:40:53.724Z,59.92
2022-11-04T07:43:20.454Z,59.78
2022-11-04T07:45:47.179Z,60.05
2022-11-04T07:48:13.914Z,59.99
2022-11-04T07:50:40.714Z,59.74
2022-11-04T07:53:08.090Z,60.96
2022-11-04T07:55:42.888Z,61.22
2022-11-04T07:58:11.536Z,61.32
2022-11-04T08:00:38.223Z,60.55
2022-11-04T08:03:04.952Z,61.55
2022-11-04T08:05:31.610Z,60.80
2022-11-04T08:07:59.078Z,60.42
2022-11-04T08:10:25.897Z,61.03
2022-11-04T08:12:53.065Z,61.61
2022-11-04T08:15:21.281Z,60.97
2022-11-04T08:17:48.291Z,61.21
2022-11-04T08:20:15.767Z,60.89
2022-11-04T08:22:42.471Z,61.24
2022-11-04T08:25:13.324Z,60.87
2022-11-04T08:27:40.266Z,61.11
2022-11-04T08:30:09.520Z,61.37
2022-11-04T08:32:37.672Z,61.05
2022-11-04T08:35:05.056Z,61.84
2022-11-04T08:37:31.778Z,61.63
2022-11-04T08:39:58.474Z,61.52
2022-11-04T08:42:26.160Z,62.11
2022-11-04T08:44:52.936Z,62.37
2022-11-04T08:47:19.966Z,61.62
2022-11-04T08:49:48.011Z,61.99
2022-11-04T08:52:14.676Z,61.19
2022-11-04T08:54:41.520Z,61.74
2022-11-04T08:57:09.233Z,61.69
2022-11-04T08:59:36.425Z,62.07
2022-11-04T09:02:03.221Z,62.42
2022-11-04T09:04:29.875Z,62.22
2022-11-04T09:06:57.905Z,61.73
2022-11-04T09:09:24.561Z,62.26
2022-11-04T09:11:51.311Z,62.24
2022-11-04T09:14:18.134Z,62.65
2022-11-04T09:16:44.855Z,62.78
2022-11-04T09:19:11.736Z,62.53
2022-11-04T09:21:38.433Z,62.05
2022-11-04T09:24:07.831Z,62.36
2022-11-04T09:26:34.699Z,62.23
2022-11-04T09:29:01.782Z,62.41
2022-11-04T09:31:30.545Z,62.34
2022-11-04T09:33:57.639Z,62.02
2022-11-04T09:36:24.600Z,61.96
2022-11-04T09:38:51.797Z,62.09
2022-11-04T09:41:54.016Z,62.09
2022-11-04T09:44:27.869Z,62.10
2022-11-04T09:46:58.822Z,62.47
2022-11-04T09:49:29.818Z,61.96
2022-11-04T09:51:59.432Z,62.09
2022-11-04T09:54:32.558Z,62.58
2022-11-04T09:57:01.721Z,62.10
2022-11-04T09:59:33.080Z,61.95
2022-11-04T10:02:22.113Z,60.77
2022-11-04T10:05:02.305Z,60.54
2022-11-04T10:07:45.214Z,60.58
2022-11-04T10:10:20.651Z,61.34
2022-11-04T10:13:06.855Z,60.94
2022-11-04T10:16:03.438Z,61.42
2022-11-04T10:18:42.651Z,60.25
2022-11-04T10:21:21.686Z,60.79
2022-11-04T10:24:05.480Z,59.92
2022-11-04T10:26:39.964Z,60.23
2022-11-04T10:29:13.355Z,60.13
2022-11-04T10:31:44.964Z,60.29
2022-11-04T10:34:23.518Z,60.17
2022-11-04T10:36:51.012Z,59.58
2022-11-04T10:39:25.669Z,59.77
2022-11-04T10:41:52.764Z,60.13
2022-11-04T10:44:22.510Z,59.64
2022-11-04T10:47:02.524Z,60.01
2022-11-04T10:50:06.866Z,59.60
2022-11-04T10:52:33.696Z,60.23
2022-11-04T10:55:00.554Z,59.78
2022-11-04T10:57:28.046Z,59.81
2022-11-04T10:59:57.160Z,60.19
2022-11-04T11:02:45.709Z,60.04
2022-11-04T11:05:23.300Z,59.80
2022-11-04T11:07:52.252Z,60.01
2022-11-04T11:10:21.939Z,60.03
2022-11-04T11:12:54.255Z,59.52
2022-11-04T11:15:32.576Z,59.81
2022-11-04T11:18:18.329Z,59.84
2022-11-04T11:20:49.457Z,60.40
2022-11-04T11:23:37.566Z,59.98
2022-11-04T11:26:07.122Z,59.59
2022-11-04T11:28:38.146Z,60.06
2022-11-04T11:31:11.780Z,59.16
2022-11-04T11:33:47.120Z,58.63
2022-11-04T11:36:18.957Z,58.89
2022-11-04T11:38:59.012Z,58.68
2022-11-04T11:41:31.738Z,59.42
2022-11-04T11:44:06.102Z,59.17
2022-11-04T11:46:36.363Z,59.37
2022-11-04T11:49:05.594Z,59.65
2022-11-04T11:51:35.311Z,60.02
2022-11-04T11:54:23.160Z,60.13
2022-11-04T11:57:12.530Z,59.94
2022-11-04T12:02:46.003Z,60.62
2022-11-04T12:11:14.172Z,61.04
2022-11-04T12:13:46.249Z,61.38
2022-11-04T12:16:24.662Z,60.73
2022-11-04T12:19:17.188Z,60.52
2022-11-04T12:21:54.960Z,59.73
2022-11-04T12:24:34.197Z,59.82
2022-11-04T12:27:12.907Z,59.74
2022-11-04T12:29:51.409Z,59.65
2022-11-04T12:32:30.520Z,60.09
2022-11-04T12:35:12.212Z,60.37
2022-11-04T12:37:53.267Z,60.33
2022-11-04T12:40:22.106Z,60.22
2022-11-04T12:43:08.565Z,59.08
2022-11-04T12:45:46.433Z,59.01
2022-11-04T12:48:29.397Z,58.87
2022-11-04T12:51:05.853Z,59.11
2022-11-04T12:53:52.678Z,59.04
2022-11-04T12:56:22.239Z,59.21
2022-11-04T12:59:16.524Z,59.40
2022-11-04T13:01:48.162Z,59.49
2022-11-04T13:04:20.282Z,59.54
2022-11-04T13:06:51.591Z,59.55
2022-11-04T13:09:30.173Z,59.29
2022-11-04T13:12:05.837Z,59.04
2022-11-04T13:14:42.151Z,59.15
2022-11-04T13:17:15.513Z,59.07
2022-11-04T13:19:47.399Z,58.58
2022-11-04T13:22:19.480Z,58.64
2022-11-04T13:24:50.381Z,58.69
2022-11-04T13:27:21.389Z,58.79
2022-11-04T13:29:52.227Z,58.50
2022-11-04T13:32:27.965Z,58.37
2022-11-04T13:34:59.414Z,59.01
2022-11-04T13:37:31.083Z,59.03
2022-11-04T13:40:04.133Z,58.60
2022-11-04T13:42:54.430Z,58.38
2022-11-04T13:45:21.481Z,58.47
2022-11-04T13:47:51.061Z,59.58
2022-11-04T13:50:32.244Z,59.53
2022-11-04T13:52:59.958Z,59.51
2022-11-04T13:55:28.139Z,59.63
2022-11-04T13:57:58.199Z,59.22
2022-11-04T14:00:26.733Z,59.45
2022-11-04T14:02:54.596Z,59.61
2022-11-04T14:06:05.997Z,59.37
2022-11-04T14:08:33.424Z,60.12
2022-11-04T14:11:12.491Z,60.14
2022-11-04T14:14:03.774Z,59.60
2022-11-04T14:16:42.266Z,59.40
2022-11-04T14:19:55.789Z,59.91
2022-11-04T14:22:37.515Z,59.61
2022-11-04T14:25:22.625Z,58.93
2022-11-04T14:27:52.686Z,58.78
2022-11-04T14:30:36.790Z,58.65
2022-11-04T14:33:07.488Z,58.78
2022-11-04T14:35:35.954Z,58.38
2022-11-04T14:38:18.201Z,58.94
2022-11-04T14:40:47.822Z,58.85
2022-11-04T14:43:31.198Z,58.71
2022-11-04T14:46:00.122Z,58.23
2022-11-04T14:48:28.672Z,58.31
2022-11-04T14:50:56.979Z,58.06
2022-11-04T14:53:30.795Z,59.00
2022-11-04T14:56:15.017Z,58.78
2022-11-04T14:58:56.640Z,58.89
2022-11-04T15:01:26.524Z,59.55
2022-11-04T15:04:13.063Z,58.99
2022-11-04T15:06:54.043Z,59.42
2022-11-04T15:09:24.519Z,59.11
2022-11-04T15:12:11.364Z,58.93
2022-11-04T15:14:39.527Z,58.95
2022-11-04T15:17:06.331Z,58.53
2022-11-04T15:19:35.527Z,58.40
2022-11-04T15:22:04.566Z,58.56
2022-11-04T15:24:31.571Z,58.17
2022-11-04T15:27:03.205Z,58.29
2022-11-04T15:29:30.120Z,58.50
2022-11-04T15:32:00.523Z,58.37
2022-11-04T15:34:29.399Z,58.46
2022-11-04T15:36:58.810Z,59.06
2022-11-04T15:39:26.638Z,58.41
2022-11-04T15:42:16.303Z,58.42
2022-11-04T15:44:46.446Z,58.72
2022-11-04T15:47:25.944Z,59.34
2022-11-04T15:49:54.416Z,59.38
2022-11-04T15:52:23.395Z,58.79
2022-11-04T15:54:51.931Z,58.98
2022-11-04T15:57:21.207Z,59.04
2022-11-04T15:59:52.926Z,59.36
2022-11-04T16:02:26.783Z,59.79
2022-11-04T16:05:17.085Z,59.55
2022-11-04T16:07:45.286Z,59.66
2022-11-04T16:10:30.256Z,60.29
2022-11-04T16:12:59.256Z,59.97
2022-11-04T16:15:38.944Z,60.08
2022-11-04T16:18:21.574Z,59.63
2022-11-04T16:20:50.459Z,59.48
2022-11-04T16:23:20.844Z,59.15
2022-11-04T16:25:54.252Z,59.63
2022-11-04T16:28:21.348Z,59.99
2022-11-04T16:30:56.236Z,60.16
2022-11-04T16:33:24.297Z,60.89
2022-11-04T16:35:50.995Z,61.15
2022-11-04T16:38:17.737Z,60.69
2022-11-04T16:40:47.434Z,61.00
2022-11-04T16:43:17.531Z,61.39
2022-11-04T16:45:52.398Z,61.87
2022-11-04T16:48:21.884Z,61.29
2022-11-04T16:50:49.939Z,61.40
2022-11-04T16:53:16.646Z,61.89
2022-11-04T16:55:44.535Z,61.39
2022-11-04T16:58:17.297Z,60.85
2022-11-04T17:00:44.085Z,60.81
2022-11-04T17:03:22.136Z,60.58
2022-11-04T17:05:51.238Z,61.16
2022-11-04T17:08:18.328Z,60.83
2022-11-04T17:10:45.737Z,60.92
2022-11-04T17:13:13.005Z,60.66
2022-11-04T17:15:40.920Z,61.45
2022-11-04T17:18:07.640Z,61.68
2022-11-04T17:20:34.403Z,61.75
2022-11-04T17:23:02.451Z,61.91
2022-11-04T17:25:29.797Z,62.02
2022-11-04T17:27:56.507Z,61.25
2022-11-04T17:30:23.663Z,60.90
2022-11-04T17:32:50.915Z,61.29
2022-11-04T17:35:18.183Z,61.07
2022-11-04T17:37:44.904Z,61.74
2022-11-04T17:40:16.134Z,61.15
2022-11-04T17:43:02.634Z,61.41
2022-11-04T17:45:31.889Z,61.30
2022-11-04T17:48:02.971Z,61.66
2022-11-04T17:50:30.363Z,60.91
2022-11-04T17:52:57.041Z,61.20
2022-11-04T17:55:27.708Z,61.05
2022-11-04T17:57:55.367Z,61.39
2022-11-04T18:00:25.749Z,60.68
2022-11-04T18:02:52.518Z,60.48
2022-11-04T18:05:19.203Z,60.53
2022-11-04T18:07:45.765Z,61.13
2022-11-04T18:10:12.264Z,61.09
2022-11-04T18:12:41.562Z,61.33
2022-11-04T18:15:10.050Z,61.58
2022-11-04T18:17:37.005Z,62.00
2022-11-04T18:20:03.677Z,61.59
2022-11-04T18:22:30.320Z,62.02
2022-11-04T18:24:56.913Z,62.08
2022-11-04T18:27:23.483Z,61.89
2022-11-04T18:29:51.346Z,62.26
2022-11-04T18:32:17.893Z,62.58
2022-11-04T18:34:44.781Z,62.85
2022-11-04T18:37:11.440Z,62.42
2022-11-04T18:39:38.618Z,62.96
2022-11-04T18:42:05.888Z,62.99
2022-11-04T18:44:32.448Z,63.10
2022-11-04T18:47:00.333Z,62.72
2022-11-04T18:49:26.921Z,63.00
2022-11-04T18:51:53.503Z,63.41
2022-11-04T18:54:20.173Z,64.20
2022-11-04T18:56:46.887Z,63.75
2022-11-04T18:59:14.601Z,63.53
2022-11-04T19:01:42.029Z,64.07
2022-11-04T19:04:10.090Z,63.89
2022-11-04T19:06:39.562Z,64.07
2022-11-04T19:09:25.243Z,64.03
2022-11-04T19:12:13.537Z,63.93
2022-11-04T19:14:40.326Z,63.08
2022-11-04T19:17:06.840Z,62.51
2022-11-04T19:19:34.684Z,62.50
2022-11-04T19:22:01.234Z,62.60
2022-11-04T19:24:28.565Z,62.88
2022-11-04T19:26:55.157Z,62.43
2022-11-04T19:29:21.667Z,62.70
2022-11-04T19:31:49.193Z,63.01
2022-11-04T19:34:15.664Z,63.21
2022-11-04T19:36:43.535Z,63.23
2022-11-04T19:39:10.087Z,63.68
2022-11-04T19:41:55.317Z,64.72
2022-11-04T19:44:22.326Z,64.82
2022-11-04T19:46:49.328Z,64.78
2022-11-04T19:49:16.204Z,65.07
2022-11-04T19:51:44.498Z,65.00
2022-11-04T19:54:11.205Z,64.77
2022-11-04T19:56:37.811Z,63.67
2022-11-04T19:59:06.431Z,63.99
2022-11-04T20:01:34.804Z,63.81
2022-11-04T20:04:02.873Z,64.52
2022-11-04T20:06:29.510Z,65.02
2022-11-04T20:08:57.395Z,65.24
2022-11-04T20:11:23.940Z,65.48
2022-11-04T20:13:51.918Z,65.29
2022-11-04T20:16:19.960Z,65.21
2022-11-04T20:18:47.540Z,65.07
2022-11-04T20:21:14.677Z,64.97
2022-11-04T20:23:41.577Z,64.95
2022-11-04T20:26:12.876Z,65.04
2022-11-04T20:28:42.588Z,64.68
2022-11-04T20:31:13.463Z,64.37
2022-11-04T20:33:40.609Z,64.55
2022-11-04T20:36:07.842Z,65.03
2022-11-04T20:38:34.746Z,65.29
2022-11-04T20:41:05.734Z,65.59
2022-11-04T20:43:34.646Z,66.04
2022-11-04T20:46:03.856Z,65.94
2022-11-04T20:48:31.019Z,66.12
2022-11-04T20:50:57.670Z,66.53
2022-11-04T20:53:24.199Z,66.66
2022-11-04T20:55:50.738Z,66.02
2022-11-04T20:58:17.214Z,65.99
2022-11-04T21:00:45.834Z,65.74
2022-11-04T21:03:12.319Z,65.14
2022-11-04T21:05:38.893Z,65.59
2022-11-04T21:08:05.426Z,66.03
2022-11-04T21:10:31.938Z,66.25
2022-11-04T21:12:58.538Z,66.42
2022-11-04T21:15:44.163Z,65.98
2022-11-04T21:18:13.069Z,65.54
2022-11-04T21:20:41.772Z,65.00
2022-11-04T21:23:08.755Z,64.67
2022-11-04T21:25:39.085Z,64.41
2022-11-04T21:28:05.551Z,64.83
2022-11-04T21:30:33.426Z,64.55
2022-11-04T21:32:59.941Z,65.60
2022-11-04T21:35:27.958Z,65.93
2022-11-04T21:37:54.734Z,66.43
2022-11-04T21:40:21.256Z,67.07
2022-11-04T21:42:47.999Z,66.55
2022-11-04T21:45:14.674Z,66.73
2022-11-04T21:47:41.157Z,66.94
2022-11-04T21:50:08.073Z,66.52
2022-11-04T21:52:35.951Z,66.80
2022-11-04T21:55:02.704Z,66.53
2022-11-04T21:57:29.390Z,65.75
2022-11-04T21:59:56.002Z,66.07
2022-11-04T22:02:22.698Z,65.47
2022-11-04T22:04:49.780Z,65.71
2022-11-04T22:07:36.225Z,65.78
2022-11-04T22:10:04.350Z,65.53
2022-11-04T22:12:30.919Z,65.55
2022-11-04T22:14:57.487Z,66.04
2022-11-04T22:17:23.995Z,66.09
2022-11-04T22:19:50.529Z,66.63
2022-11-04T22:22:17.062Z,66.56
2022-11-04T22:24:43.506Z,66.98
2022-11-04T22:27:11.392Z,66.84
2022-11-04T22:29:37.901Z,66.57
2022-11-04T22:32:04.487Z,66.38
2022-11-04T22:34:31.007Z,66.73
2022-11-04T22:36:57.480Z,66.41
2022-11-04T22:39:24.138Z,66.62
2022-11-04T22:41:50.804Z,66.31
2022-11-04T22:44:18.897Z,66.78
2022-11-04T22:46:45.361Z,66.82
2022-11-04T22:49:14.796Z,66.86
2022-11-04T22:51:41.551Z,66.98
2022-11-04T22:54:09.726Z,66.84
2022-11-04T22:56:36.552Z,66.56
2022-11-04T22:59:03.122Z,65.98
2022-11-04T23:01:32.980Z,66.11
2022-11-04T23:03:59.945Z,66.22
2022-11-04T23:06:26.537Z,66.10
2022-11-04T23:08:59.709Z,66.61
2022-11-04T23:11:46.114Z,66.67
2022-11-04T23:14:32.307Z,66.05
2022-11-04T23:17:18.966Z,66.25
2022-11-04T23:19:45.590Z,66.36
2022-11-04T23:22:30.943Z,66.59
2022-11-04T23:25:06.630Z,66.47
2022-11-04T23:27:51.846Z,66.50
2022-11-04T23:30:21.489Z,66.63
2022-11-04T23:32:49.707Z,66.09
2022-11-04T23:35:35.005Z,66.26
2022-11-04T23:38:01.814Z,66.35
2022-11-04T23:40:29.190Z,66.55
2022-11-04T23:42:55.710Z,66.09
2022-11-04T23:45:41.023Z,66.21
2022-11-04T23:48:28.490Z,66.37
2022-11-04T23:51:14.227Z,66.10
2022-11-04T23:53:59.302Z,65.87
2022-11-04T23:56:46.584Z,65.97
2022-11-04T23:59:33.094Z,66.20
